Time;durP1;ratioP1;P1;durP2;ratioP2;P2;SDS_P1;SDS_P2;PMS_P1;PMS_P2;Temp;Humidity;BMP_temperature;BMP_pressure;BME280_temperature;BME280_humidity;BME280_pressure;Samples;Min_cycle;Max_cycle;Signal;HPM_P1;HPM_P2
2023/04/07 00:01:09;;;;;;;;;;;;;;;7.98;nan;102107.53;5023456;28;19917;-79
2023/04/07 00:03:36;;;;;;;;;;;;;;;7.95;nan;102113.28;5005067;28;19928;-79
2023/04/07 00:06:02;;;;;;;;;;;;;;;7.93;nan;102107.31;5019315;28;19918;-79
2023/04/07 00:08:27;;;;;;;;;;;;;;;7.92;nan;102110.19;5022441;28;20311;-78
2023/04/07 00:10:52;;;;;;;;;;;;;;;7.84;nan;102106.66;5021517;28;20004;-78
2023/04/07 00:13:18;;;;;;;;;;;;;;;7.76;nan;102100.66;5022341;28;19967;-79
2023/04/07 00:15:43;;;;;;;;;;;;;;;7.73;nan;102101.06;5021687;28;19964;-79
2023/04/07 00:18:08;;;;;;;;;;;;;;;7.68;nan;102108.78;5018928;28;19997;-79
2023/04/07 00:20:34;;;;;;;;;;;;;;;7.72;nan;102104.72;5020372;28;20482;-78
2023/04/07 00:22:59;;;;;;;;;;;;;;;7.72;nan;102104.72;5023398;28;19921;-79
2023/04/07 00:25:25;;;;;;;;;;;;;;;7.69;nan;102097.94;5021610;28;20000;-78
2023/04/07 00:27:50;;;;;;;;;;;;;;;7.65;nan;102094.00;5020436;28;19925;-79
2023/04/07 00:30:16;;;;;;;;;;;;;;;7.68;nan;102093.63;5019724;28;19925;-78
2023/04/07 00:32:41;;;;;;;;;;;;;;;7.72;nan;102094.03;5019283;28;19971;-78
2023/04/07 00:35:07;;;;;;;;;;;;;;;7.73;nan;102095.72;5019399;28;19960;-79
2023/04/07 00:37:32;;;;;;;;;;;;;;;7.73;nan;102085.88;5020640;28;19975;-78
2023/04/07 00:39:58;;;;;;;;;;;;;;;7.73;nan;102090.38;5022349;28;20402;-79
2023/04/07 00:42:23;;;;;;;;;;;;;;;7.74;nan;102092.84;5020436;28;20061;-79
2023/04/07 00:44:49;;;;;;;;;;;;;;;7.78;nan;102085.28;5019745;28;19925;-79
2023/04/07 00:47:14;;;;;;;;;;;;;;;7.80;nan;102085.91;5023817;28;19921;-78
2023/04/07 00:49:40;;;;;;;;;;;;;;;7.76;nan;102084.66;5024930;28;19928;-78
2023/04/07 00:52:07;;;;;;;;;;;;;;;7.72;nan;102086.03;5026276;28;20364;-78
2023/04/07 00:54:32;;;;;;;;;;;;;;;7.69;nan;102078.44;5023859;28;19925;-78
2023/04/07 00:56:57;;;;;;;;;;;;;;;7.65;nan;102071.84;4998396;28;19921;-78
2023/04/07 00:59:23;;;;;;;;;;;;;;;7.63;nan;102080.06;5023348;28;20502;-78
2023/04/07 01:02:04;;;;;;;;;;;;;;;7.61;nan;102070.59;5025034;28;19933;-79
2023/04/07 01:04:38;;;;;;;;;;;;;;;7.58;nan;102064.63;5023953;28;19924;-77
2023/04/07 01:07:05;;;;;;;;;;;;;;;7.56;nan;102074.69;5024602;28;20135;-79
2023/04/07 01:09:40;;;;;;;;;;;;;;;7.54;nan;102079.41;5021933;28;19925;-78
2023/04/07 01:12:23;;;;;;;;;;;;;;;7.52;nan;102078.75;5024548;28;19924;-78
2023/04/07 01:14:54;;;;;;;;;;;;;;;7.52;nan;102083.25;5020252;28;20015;-78
2023/04/07 01:17:22;;;;;;;;;;;;;;;7.54;nan;102078.53;5023749;28;20282;-78
2023/04/07 01:19:55;;;;;;;;;;;;;;;7.53;nan;102076.91;5022962;28;19921;-78
2023/04/07 01:22:23;;;;;;;;;;;;;;;7.52;nan;102083.25;5020820;28;19928;-79
2023/04/07 01:25:07;;;;;;;;;;;;;;;7.51;nan;102074.44;5021328;28;20438;-78
2023/04/07 01:27:51;;;;;;;;;;;;;;;7.48;nan;102072.16;5020325;28;19991;-78
2023/04/07 01:30:16;;;;;;;;;;;;;;;7.44;nan;102076.25;5025825;28;19921;-78
2023/04/07 01:32:44;;;;;;;;;;;;;;;7.44;nan;102070.09;5002225;28;20391;-79
2023/04/07 01:35:11;;;;;;;;;;;;;;;7.45;nan;102066.41;5015331;28;19963;-78
2023/04/07 01:37:37;;;;;;;;;;;;;;;7.42;nan;102072.13;5024005;28;20015;-78
2023/04/07 01:40:04;;;;;;;;;;;;;;;7.41;nan;102065.16;5028627;28;19954;-79
2023/04/07 01:42:30;;;;;;;;;;;;;;;7.40;nan;102067.00;5027074;28;20469;-79
2023/04/07 01:44:57;;;;;;;;;;;;;;;7.41;nan;102060.63;5011730;28;19921;-78
2023/04/07 01:47:22;;;;;;;;;;;;;;;7.42;nan;102066.78;5025425;28;19921;-78
2023/04/07 01:49:49;;;;;;;;;;;;;;;7.41;nan;102057.97;5025238;28;20189;-79
2023/04/07 01:52:15;;;;;;;;;;;;;;;7.42;nan;102059.63;5030301;28;19921;-78
2023/04/07 01:54:41;;;;;;;;;;;;;;;7.44;nan;102068.25;5026707;28;19921;-78
2023/04/07 01:57:07;;;;;;;;;;;;;;;7.47;nan;102054.50;5029710;28;20503;-79
2023/04/07 01:59:32;;;;;;;;;;;;;;;7.46;nan;102055.53;5026293;28;19921;-78
2023/04/07 02:01:57;;;;;;;;;;;;;;;7.45;nan;102061.88;5023773;28;19917;-79
2023/04/07 02:04:32;;;;;;;;;;;;;;;7.45;nan;102058.41;5024319;28;20016;-78
2023/04/07 02:07:14;;;;;;;;;;;;;;;7.42;nan;102056.94;5029966;28;20279;-77
2023/04/07 02:09:41;;;;;;;;;;;;;;;7.41;nan;102059.81;5027605;28;19947;-78
2023/04/07 02:12:08;;;;;;;;;;;;;;;7.40;nan;102058.16;5024631;28;19925;-79
2023/04/07 02:14:35;;;;;;;;;;;;;;;7.38;nan;102060.22;5023058;28;19964;-78
2023/04/07 02:17:01;;;;;;;;;;;;;;;7.37;nan;102059.38;5029450;28;19928;-79
2023/04/07 02:19:26;;;;;;;;;;;;;;;7.37;nan;102054.06;5022762;28;20662;-78
2023/04/07 02:21:52;;;;;;;;;;;;;;;7.36;nan;102049.75;5024629;28;20015;-77
2023/04/07 02:24:19;;;;;;;;;;;;;;;7.35;nan;102048.06;5024320;28;20119;-78
2023/04/07 02:26:44;;;;;;;;;;;;;;;7.36;nan;102056.88;5027011;28;19960;-77
2023/04/07 02:29:10;;;;;;;;;;;;;;;7.34;nan;102053.59;5025807;28;20365;-78
2023/04/07 02:31:35;;;;;;;;;;;;;;;7.33;nan;102052.75;5022988;28;20321;-77
2023/04/07 02:34:00;;;;;;;;;;;;;;;7.32;nan;102051.13;5022401;28;20113;-78
2023/04/07 02:36:26;;;;;;;;;;;;;;;7.31;nan;102043.31;5018014;22;19976;-78
2023/04/07 02:38:51;;;;;;;;;;;;;;;7.28;nan;102048.03;4986136;28;20310;-78
2023/04/07 02:41:17;;;;;;;;;;;;;;;7.28;nan;102049.88;4985169;28;19922;-78
2023/04/07 02:43:42;;;;;;;;;;;;;;;7.28;nan;102047.19;4980084;28;20544;-79
2023/04/07 02:46:07;;;;;;;;;;;;;;;7.25;nan;102043.09;4985563;28;20470;-79
2023/04/07 02:48:33;;;;;;;;;;;;;;;7.22;nan;102040.81;4991222;28;19952;-78
2023/04/07 02:50:58;;;;;;;;;;;;;;;7.20;nan;102044.69;4987502;28;19918;-78
2023/04/07 02:53:23;;;;;;;;;;;;;;;7.17;nan;102042.41;4984006;28;19918;-78
2023/04/07 02:55:49;;;;;;;;;;;;;;;7.14;nan;102040.13;4984706;28;19925;-79
2023/04/07 02:58:14;;;;;;;;;;;;;;;7.13;nan;102035.81;4986702;28;20422;-79
2023/04/07 03:00:40;;;;;;;;;;;;;;;7.12;nan;102037.66;4987721;28;19925;-79
2023/04/07 03:03:05;;;;;;;;;;;;;;;7.11;nan;102033.34;4987833;28;19921;-79
2023/04/07 03:05:31;;;;;;;;;;;;;;;7.12;nan;102034.16;4991226;28;19965;-78
2023/04/07 03:07:56;;;;;;;;;;;;;;;7.13;nan;102022.47;4981312;28;19929;-79
2023/04/07 03:10:22;;;;;;;;;;;;;;;7.12;nan;102024.31;4992182;28;19922;-78
2023/04/07 03:12:47;;;;;;;;;;;;;;;7.11;nan;102022.69;4984024;28;19921;-79
2023/04/07 03:15:12;;;;;;;;;;;;;;;7.11;nan;102032.53;4993729;28;20008;-78
2023/04/07 03:17:38;;;;;;;;;;;;;;;7.09;nan;102029.22;4983524;28;20101;-79
2023/04/07 03:20:03;;;;;;;;;;;;;;;7.06;nan;102035.78;4989004;28;19964;-79
2023/04/07 03:22:29;;;;;;;;;;;;;;;7.03;nan;102025.50;4985295;28;19925;-79
2023/04/07 03:24:55;;;;;;;;;;;;;;;7.03;nan;102032.69;4989218;28;19933;-79
2023/04/07 03:27:20;;;;;;;;;;;;;;;7.02;nan;102028.38;4982019;28;19926;-79
2023/04/07 03:29:45;;;;;;;;;;;;;;;6.98;nan;102020.72;4981430;28;19922;-79
2023/04/07 03:32:11;;;;;;;;;;;;;;;6.95;nan;102018.47;4989827;28;20386;-79
2023/04/07 03:34:36;;;;;;;;;;;;;;;6.93;nan;102019.66;4986166;28;20359;-79
2023/04/07 03:37:01;;;;;;;;;;;;;;;6.93;nan;102025.81;4988560;28;19921;-79
2023/04/07 03:39:27;;;;;;;;;;;;;;;6.95;nan;102021.13;4983129;28;20290;-78
2023/04/07 03:41:52;;;;;;;;;;;;;;;6.96;nan;102025.44;4986704;28;20652;-78
2023/04/07 03:44:17;;;;;;;;;;;;;;;6.98;nan;102023.41;4985734;28;20398;-79
2023/04/07 03:46:44;;;;;;;;;;;;;;;7.03;nan;102032.69;4989112;28;19960;-79
2023/04/07 03:49:10;;;;;;;;;;;;;;;7.07;nan;102041.94;4988113;28;19930;-79
2023/04/07 03:51:35;;;;;;;;;;;;;;;7.10;nan;102039.69;4989530;28;19960;-79
2023/04/07 03:54:01;;;;;;;;;;;;;;;7.09;nan;102026.56;4983873;28;19922;-79
2023/04/07 03:56:26;;;;;;;;;;;;;;;7.00;nan;102033.03;4984768;28;19968;-79
2023/04/07 03:58:51;;;;;;;;;;;;;;;6.91;nan;102027.84;4984250;28;19925;-79
2023/04/07 04:01:17;;;;;;;;;;;;;;;6.90;nan;102026.22;4993721;28;19918;-79
2023/04/07 04:03:42;;;;;;;;;;;;;;;6.94;nan;102030.13;4991486;28;20001;-78
2023/04/07 04:06:07;;;;;;;;;;;;;;;6.99;nan;102024.22;4984620;28;19918;-79
2023/04/07 04:08:33;;;;;;;;;;;;;;;6.97;nan;102016.41;4985203;28;19932;-79
2023/04/07 04:10:58;;;;;;;;;;;;;;;6.96;nan;102012.09;4990940;28;19927;-79
2023/04/07 04:13:24;;;;;;;;;;;;;;;7.01;nan;102010.72;4981814;28;19918;-79
2023/04/07 04:15:50;;;;;;;;;;;;;;;7.08;nan;102020.41;4984190;28;20284;-79
2023/04/07 04:18:15;;;;;;;;;;;;;;;7.15;nan;102009.78;4983762;28;19921;-79
2023/04/07 04:20:41;;;;;;;;;;;;;;;7.19;nan;102019.06;4985731;28;19964;-79
2023/04/07 04:23:07;;;;;;;;;;;;;;;7.21;nan;102019.69;4983045;28;20413;-79
2023/04/07 04:25:32;;;;;;;;;;;;;;;7.26;nan;102025.25;4987462;28;19917;-79
2023/04/07 04:27:57;;;;;;;;;;;;;;;7.30;nan;102021.16;4982587;28;19926;-79
2023/04/07 04:30:23;;;;;;;;;;;;;;;7.34;nan;102021.59;4986667;28;20149;-79
2023/04/07 04:32:49;;;;;;;;;;;;;;;7.35;nan;102024.06;4984166;28;19932;-79
2023/04/07 04:35:14;;;;;;;;;;;;;;;7.35;nan;102031.25;4996627;28;19965;-79
2023/04/07 04:37:40;;;;;;;;;;;;;;;7.34;nan;102021.59;4983066;28;20032;-79
2023/04/07 04:40:07;;;;;;;;;;;;;;;7.37;nan;102030.06;4982063;28;19922;-79
2023/04/07 04:42:33;;;;;;;;;;;;;;;7.42;nan;102040.94;4986389;28;20442;-79
2023/04/07 04:44:58;;;;;;;;;;;;;;;7.46;nan;102036.03;4984727;28;20782;-79
2023/04/07 04:47:23;;;;;;;;;;;;;;;7.49;nan;102036.47;4980862;28;19921;-79
2023/04/07 04:49:48;;;;;;;;;;;;;;;7.52;nan;102041.41;4979680;28;20056;-79
2023/04/07 04:52:14;;;;;;;;;;;;;;;7.54;nan;102039.38;4985200;28;20008;-79
2023/04/07 04:54:39;;;;;;;;;;;;;;;7.58;nan;102043.31;4983641;28;19926;-79
2023/04/07 04:57:05;;;;;;;;;;;;;;;7.61;nan;102039.41;4987967;28;19929;-79
2023/04/07 04:59:30;;;;;;;;;;;;;;;7.64;nan;102033.69;4981657;28;19925;-79
2023/04/07 05:01:55;;;;;;;;;;;;;;;7.69;nan;102041.09;4977987;28;19926;-79
2023/04/07 05:04:20;;;;;;;;;;;;;;;7.74;nan;102052.00;4986474;28;19930;-79
2023/04/07 05:06:46;;;;;;;;;;;;;;;7.76;nan;102042.78;4986345;28;19937;-79
2023/04/07 05:09:11;;;;;;;;;;;;;;;7.79;nan;102044.22;4990810;28;20762;-79
2023/04/07 05:11:36;;;;;;;;;;;;;;;7.85;nan;102051.44;4980907;28;19933;-79
2023/04/07 05:14:02;;;;;;;;;;;;;;;7.91;nan;102047.16;4990703;28;19922;-79
2023/04/07 05:16:27;;;;;;;;;;;;;;;7.96;nan;102050.88;4991841;28;20291;-79
2023/04/07 05:18:52;;;;;;;;;;;;;;;7.98;nan;102043.50;4991781;28;20296;-79
2023/04/07 05:21:20;;;;;;;;;;;;;;;8.03;nan;102049.03;4985231;28;19921;-79
2023/04/07 05:23:46;;;;;;;;;;;;;;;8.09;nan;102048.28;4984732;28;19924;-79
2023/04/07 05:26:11;;;;;;;;;;;;;;;8.13;nan;102046.84;4987473;28;20671;-79
2023/04/07 05:28:36;;;;;;;;;;;;;;;8.16;nan;102054.44;4985784;28;19972;-79
2023/04/07 05:31:02;;;;;;;;;;;;;;;8.22;nan;102046.66;4988164;28;20376;-79
2023/04/07 05:33:27;;;;;;;;;;;;;;;8.26;nan;102038.06;4984403;28;19944;-79
2023/04/07 05:35:52;;;;;;;;;;;;;;;8.31;nan;102034.78;4995039;28;20363;-80
2023/04/07 05:38:18;;;;;;;;;;;;;;;8.28;nan;102035.19;4988203;28;19933;-80
2023/04/07 05:40:43;;;;;;;;;;;;;;;8.26;nan;102046.06;4991519;28;19976;-79
2023/04/07 05:43:09;;;;;;;;;;;;;;;8.25;nan;102044.41;4998233;28;20421;-80
2023/04/07 05:45:34;;;;;;;;;;;;;;;8.29;nan;102042.19;4985257;28;19922;-79
2023/04/07 05:48:00;;;;;;;;;;;;;;;8.37;nan;102042.00;4994541;28;20110;-79
2023/04/07 05:50:25;;;;;;;;;;;;;;;8.43;nan;102042.00;4988632;28;19926;-79
2023/04/07 05:52:51;;;;;;;;;;;;;;;8.49;nan;102040.41;4989964;28;19925;-79
2023/04/07 05:55:16;;;;;;;;;;;;;;;8.54;nan;102037.94;4997712;28;19918;-79
2023/04/07 05:57:41;;;;;;;;;;;;;;;8.59;nan;102038.13;4984068;28;19969;-79
2023/04/07 06:00:07;;;;;;;;;;;;;;;8.66;nan;102022.97;4986341;28;19979;-80
2023/04/07 06:02:32;;;;;;;;;;;;;;;8.71;nan;102022.34;4990232;28;20076;-80
2023/04/07 06:04:58;;;;;;;;;;;;;;;8.77;nan;102025.00;4988971;28;19928;-80
2023/04/07 06:07:23;;;;;;;;;;;;;;;8.83;nan;102030.56;4988383;28;19936;-80
2023/04/07 06:09:48;;;;;;;;;;;;;;;8.88;nan;102030.78;4983615;28;19922;-80
2023/04/07 06:12:15;;;;;;;;;;;;;;;8.94;nan;102029.94;4989748;28;19952;-80
2023/04/07 06:14:41;;;;;;;;;;;;;;;8.96;nan;102038.56;4991711;28;19933;-80
2023/04/07 06:17:06;;;;;;;;;;;;;;;8.96;nan;102035.91;4987361;28;19925;-81
2023/04/07 06:19:32;;;;;;;;;;;;;;;8.99;nan;102038.19;4990655;28;19964;-80
2023/04/07 06:21:57;;;;;;;;;;;;;;;9.03;nan;102039.41;4985645;28;19934;-80
2023/04/07 06:24:24;;;;;;;;;;;;;;;9.07;nan;102035.28;4992519;28;20396;-80
2023/04/07 06:26:49;;;;;;;;;;;;;;;9.11;nan;102033.84;4986027;28;19928;-81
2023/04/07 06:29:15;;;;;;;;;;;;;;;9.15;nan;102032.41;4991001;28;19922;-80
2023/04/07 06:31:42;;;;;;;;;;;;;;;9.21;nan;102044.97;4981740;28;20197;-80
2023/04/07 06:34:07;;;;;;;;;;;;;;;9.28;nan;102039.59;4988011;28;20291;-80
2023/04/07 06:36:33;;;;;;;;;;;;;;;9.33;nan;102039.78;4993626;28;19918;-80
2023/04/07 06:38:59;;;;;;;;;;;;;;;9.38;nan;102038.16;4990562;28;19922;-80
2023/04/07 06:41:24;;;;;;;;;;;;;;;9.41;nan;102039.59;4988670;28;19937;-80
2023/04/07 06:43:52;;;;;;;;;;;;;;;9.45;nan;102046.16;4983234;28;19961;-80
2023/04/07 06:46:18;;;;;;;;;;;;;;;9.46;nan;102039.75;4984457;28;19921;-80
2023/04/07 06:48:43;;;;;;;;;;;;;;;9.51;nan;102041.81;4986710;28;19921;-81
2023/04/07 06:51:09;;;;;;;;;;;;;;;9.54;nan;102041.41;4996710;28;20214;-80
2023/04/07 06:53:34;;;;;;;;;;;;;;;9.57;nan;102035.63;4986931;28;20272;-80
2023/04/07 06:56:07;;;;;;;;;;;;;;;9.62;nan;102036.66;4984339;28;19926;-80
2023/04/07 06:58:32;;;;;;;;;;;;;;;9.65;nan;102038.06;4986459;28;19980;-80
2023/04/07 07:00:58;;;;;;;;;;;;;;;9.71;nan;102037.25;4988357;28;20200;-80
2023/04/07 07:03:26;;;;;;;;;;;;;;;9.75;nan;102035.78;4987947;28;19933;-80
2023/04/07 07:05:51;;;;;;;;;;;;;;;9.78;nan;102038.03;4983785;28;20073;-81
2023/04/07 07:08:17;;;;;;;;;;;;;;;9.81;nan;102048.31;4991766;28;19922;-81
2023/04/07 07:10:42;;;;;;;;;;;;;;;9.83;nan;102046.25;4987770;28;20456;-80
2023/04/07 07:13:07;;;;;;;;;;;;;;;9.85;nan;102044.19;4988969;28;19933;-80
2023/04/07 07:15:32;;;;;;;;;;;;;;;9.88;nan;102048.31;4986191;28;19933;-80
2023/04/07 07:17:58;;;;;;;;;;;;;;;9.92;nan;102050.34;4982484;28;19928;-80
2023/04/07 07:20:24;;;;;;;;;;;;;;;9.98;nan;102054.03;4992021;28;19971;-80
2023/04/07 07:22:49;;;;;;;;;;;;;;;10.00;nan;102050.09;4986325;28;20207;-79
2023/04/07 07:25:15;;;;;;;;;;;;;;;10.02;nan;102049.88;4988498;28;19926;-80
2023/04/07 07:27:40;;;;;;;;;;;;;;;10.06;nan;102051.13;4983772;28;19922;-80
2023/04/07 07:30:06;;;;;;;;;;;;;;;10.10;nan;102057.69;4984035;28;20007;-81
2023/04/07 07:32:31;;;;;;;;;;;;;;;10.13;nan;102059.94;4989052;28;20382;-81
2023/04/07 07:34:57;;;;;;;;;;;;;;;10.15;nan;102057.88;4990191;28;19937;-80
2023/04/07 07:37:23;;;;;;;;;;;;;;;10.19;nan;102058.25;4980492;28;19921;-80
2023/04/07 07:39:48;;;;;;;;;;;;;;;10.22;nan;102063.22;4980131;28;19975;-80
2023/04/07 07:42:14;;;;;;;;;;;;;;;10.27;nan;102060.75;4984901;28;20021;-80
2023/04/07 07:44:39;;;;;;;;;;;;;;;10.32;nan;102054.72;4989335;28;20260;-80
2023/04/07 07:47:04;;;;;;;;;;;;;;;10.35;nan;102052.44;4982895;28;19972;-81
2023/04/07 07:49:30;;;;;;;;;;;;;;;10.39;nan;102059.00;4985814;28;19922;-80
2023/04/07 07:51:56;;;;;;;;;;;;;;;10.45;nan;102060.03;4987393;28;19921;-80
2023/04/07 07:54:21;;;;;;;;;;;;;;;10.51;nan;102068.00;4985536;28;19927;-80
2023/04/07 07:56:47;;;;;;;;;;;;;;;10.56;nan;102068.19;4985690;28;19957;-80
2023/04/07 07:59:12;;;;;;;;;;;;;;;10.62;nan;102068.38;4985038;28;19918;-80
2023/04/07 08:01:37;;;;;;;;;;;;;;;10.66;nan;102069.59;4979544;28;19979;-81
2023/04/07 08:04:03;;;;;;;;;;;;;;;10.69;nan;102075.31;4986354;28;19925;-80
2023/04/07 08:06:30;;;;;;;;;;;;;;;10.67;nan;102073.91;4985754;28;19922;-81
2023/04/07 08:08:56;;;;;;;;;;;;;;;10.70;nan;102070.78;4984117;28;20362;-80
2023/04/07 08:11:22;;;;;;;;;;;;;;;10.73;nan;102070.34;4987121;28;19918;-80
2023/04/07 08:13:47;;;;;;;;;;;;;;;10.77;nan;102072.41;4982779;28;19972;-80
2023/04/07 08:16:12;;;;;;;;;;;;;;;10.82;nan;102072.56;4988908;28;19922;-80
2023/04/07 08:18:38;;;;;;;;;;;;;;;10.85;nan;102079.34;4984278;28;20375;-81
2023/04/07 08:21:04;;;;;;;;;;;;;;;10.85;nan;102071.31;4985390;28;19988;-80
2023/04/07 08:23:30;;;;;;;;;;;;;;;10.89;nan;102072.50;4982835;28;19922;-80
2023/04/07 08:25:55;;;;;;;;;;;;;;;10.92;nan;102073.91;4978139;28;20233;-80
2023/04/07 08:28:21;;;;;;;;;;;;;;;10.95;nan;102082.38;4978131;28;19922;-80
2023/04/07 08:30:47;;;;;;;;;;;;;;;11.00;nan;102081.72;4979829;28;19921;-80
2023/04/07 08:33:12;;;;;;;;;;;;;;;11.04;nan;102086.41;4980716;28;19947;-80
2023/04/07 08:35:38;;;;;;;;;;;;;;;11.08;nan;102082.25;4979262;28;20219;-80
2023/04/07 08:38:03;;;;;;;;;;;;;;;11.13;nan;102077.06;5029396;23;19937;-80
2023/04/07 08:40:29;;;;;;;;;;;;;;;11.16;nan;102071.25;5018981;28;19925;-81
2023/04/07 08:42:56;;;;;;;;;;;;;;;11.19;nan;102076.19;5016935;28;19999;-80
2023/04/07 08:45:23;;;;;;;;;;;;;;;11.20;nan;102072.47;5014289;28;19932;-81
2023/04/07 08:47:50;;;;;;;;;;;;;;;11.25;nan;102073.66;5019646;28;19921;-81
2023/04/07 08:50:16;;;;;;;;;;;;;;;11.25;nan;102074.47;5017708;28;19978;-81
2023/04/07 08:52:45;;;;;;;;;;;;;;;11.25;nan;102070.97;5011686;28;19956;-81
2023/04/07 08:55:11;;;;;;;;;;;;;;;11.27;nan;102075.06;5017129;28;20263;-82
2023/04/07 08:57:36;;;;;;;;;;;;;;;11.33;nan;102076.91;5020517;28;19917;-81
2023/04/07 09:00:05;;;;;;;;;;;;;;;11.37;nan;102078.09;5022836;28;19931;-82
2023/04/07 09:02:34;;;;;;;;;;;;;;;11.40;nan;102079.50;5022812;28;20107;-81
2023/04/07 09:05:03;;;;;;;;;;;;;;;11.45;nan;102076.97;5014524;28;19921;-81
2023/04/07 09:07:42;;;;;;;;;;;;;;;11.52;nan;102076.94;5020366;28;20406;-81
2023/04/07 09:10:08;;;;;;;;;;;;;;;11.56;nan;102073.56;5004024;28;20008;-81
2023/04/07 09:12:34;;;;;;;;;;;;;;;11.60;nan;102069.38;5018367;28;19964;-81
2023/04/07 09:14:59;;;;;;;;;;;;;;;11.62;nan;102078.03;5019374;28;20419;-81
2023/04/07 09:17:26;;;;;;;;;;;;;;;11.63;nan;102078.84;5017999;28;20386;-81
2023/04/07 09:20:01;;;;;;;;;;;;;;;11.63;nan;102073.50;5015180;28;20294;-81
2023/04/07 09:22:42;;;;;;;;;;;;;;;11.66;nan;102084.59;4998943;28;20646;-81
2023/04/07 09:25:29;;;;;;;;;;;;;;;11.72;nan;102083.72;5021291;28;19917;-81
2023/04/07 09:28:02;;;;;;;;;;;;;;;11.76;nan;102076.03;5015980;28;20390;-82
2023/04/07 09:30:29;;;;;;;;;;;;;;;11.77;nan;102081.19;4996048;28;19929;-81
2023/04/07 09:32:54;;;;;;;;;;;;;;;11.79;nan;102087.19;5020281;28;19994;-82
2023/04/07 09:35:21;;;;;;;;;;;;;;;11.81;nan;102076.22;4999996;28;19921;-81
2023/04/07 09:38:03;;;;;;;;;;;;;;;11.83;nan;102076.00;5016767;28;19943;-81
2023/04/07 09:40:29;;;;;;;;;;;;;;;11.79;nan;102078.31;5018977;28;20016;-81
2023/04/07 09:42:54;;;;;;;;;;;;;;;11.73;nan;102085.38;5021673;28;20024;-82
2023/04/07 09:45:30;;;;;;;;;;;;;;;11.73;nan;102088.06;5019127;28;20000;-81
2023/04/07 09:47:56;;;;;;;;;;;;;;;11.70;nan;102085.00;5019948;28;20011;-82
2023/04/07 09:50:33;;;;;;;;;;;;;;;11.72;nan;102081.03;5019764;28;20114;-82
2023/04/07 09:53:01;;;;;;;;;;;;;;;11.75;nan;102080.59;4999519;28;20337;-81
2023/04/07 09:55:33;;;;;;;;;;;;;;;11.82;nan;102079.72;5021286;28;19944;-82
2023/04/07 09:58:13;;;;;;;;;;;;;;;11.85;nan;102085.50;5015577;28;20012;-81
2023/04/07 10:00:46;;;;;;;;;;;;;;;11.89;nan;102080.47;5020672;28;19967;-81
2023/04/07 10:03:12;;;;;;;;;;;;;;;11.89;nan;102089.34;5013595;28;20345;-82
2023/04/07 10:05:38;;;;;;;;;;;;;;;11.90;nan;102095.56;5022281;28;19925;-81
2023/04/07 10:08:07;;;;;;;;;;;;;;;11.90;nan;102090.19;5012205;28;19921;-82
2023/04/07 10:10:33;;;;;;;;;;;;;;;11.90;nan;102090.19;5022466;28;19925;-82
2023/04/07 10:12:59;;;;;;;;;;;;;;;11.87;nan;102088.75;5021450;28;19929;-81
2023/04/07 10:15:25;;;;;;;;;;;;;;;11.87;nan;102090.63;5000974;28;19921;-83
2023/04/07 10:17:52;;;;;;;;;;;;;;;11.88;nan;102084.22;5006876;28;20595;-82
2023/04/07 10:20:19;;;;;;;;;;;;;;;11.91;nan;102089.13;5023958;28;19928;-83
2023/04/07 10:22:46;;;;;;;;;;;;;;;11.92;nan;102093.47;5023067;28;20023;-83
2023/04/07 10:25:13;;;;;;;;;;;;;;;11.95;nan;102084.94;5019898;28;20511;-83
2023/04/07 10:27:51;;;;;;;;;;;;;;;11.95;nan;102084.94;5022778;28;19922;-83
2023/04/07 10:30:23;;;;;;;;;;;;;;;11.95;nan;102084.94;5019109;28;19928;-83
2023/04/07 10:32:49;;;;;;;;;;;;;;;11.96;nan;102081.22;5027281;28;20011;-84
2023/04/07 10:35:16;;;;;;;;;;;;;;;11.99;nan;102086.13;5026301;28;19921;-83
2023/04/07 10:38:01;;;;;;;;;;;;;;;12.01;nan;102086.72;5021181;28;19932;-83
2023/04/07 10:40:26;;;;;;;;;;;;;;;12.02;nan;102083.81;5023628;28;19952;-83
2023/04/07 10:42:52;;;;;;;;;;;;;;;12.01;nan;102081.34;5023971;28;19925;-84
2023/04/07 10:45:37;;;;;;;;;;;;;;;12.02;nan;102083.00;5022640;28;19917;-84
2023/04/07 10:48:02;;;;;;;;;;;;;;;12.06;nan;102078.84;5023005;28;20095;-84
2023/04/07 10:50:28;;;;;;;;;;;;;;;12.09;nan;102076.50;5020594;28;20409;-84
2023/04/07 10:53:11;;;;;;;;;;;;;;;12.14;nan;102075.81;5020910;28;20393;-84
2023/04/07 10:55:43;;;;;;;;;;;;;;;12.20;nan;102080.28;5005388;28;20398;-84
2023/04/07 10:58:15;;;;;;;;;;;;;;;12.22;nan;102070.16;5021252;28;19921;-84
2023/04/07 11:03:58;;;;;;;;;;;;;;;12.22;nan;102072.03;5022714;28;20382;-84
2023/04/07 11:06:25;;;;;;;;;;;;;;;12.24;nan;102070.75;4999327;28;19932;-84
2023/04/07 11:08:59;;;;;;;;;;;;;;;12.26;nan;102063.28;5020081;28;21256;-84
2023/04/07 11:11:46;;;;;;;;;;;;;;;12.29;nan;102062.81;5024650;28;20340;-84
2023/04/07 11:14:39;;;;;;;;;;;;;;;12.34;nan;102062.13;5027479;28;20133;-84
2023/04/07 11:17:28;;;;;;;;;;;;;;;12.39;nan;102055.03;5010922;28;20394;-84
2023/04/07 11:20:17;;;;;;;;;;;;;;;12.46;nan;102056.81;5022503;28;20004;-84
2023/04/07 11:23:06;;;;;;;;;;;;;;;12.49;nan;102050.97;5022208;28;19960;-84
2023/04/07 11:29:20;;;;;;;;;;;;;;;12.63;nan;102055.94;4946629;28;20039;-83
2023/04/07 11:38:56;;;;;;;;;;;;;;;12.74;nan;102048.91;4907927;29;19934;-85
2023/04/07 11:48:31;;;;;;;;;;;;;;;12.84;nan;102049.19;4875313;29;20550;-84
2023/04/07 11:54:46;;;;;;;;;;;;;;;12.80;nan;102047.19;4831770;29;20298;-84
2023/04/07 11:57:12;;;;;;;;;;;;;;;12.81;nan;102044.28;4887324;29;19926;-84
2023/04/07 11:59:40;;;;;;;;;;;;;;;12.85;nan;102041.94;4975978;28;19921;-84
2023/04/07 12:02:06;;;;;;;;;;;;;;;12.91;nan;102049.06;5022740;28;20307;-84
2023/04/07 12:04:32;;;;;;;;;;;;;;;12.97;nan;102040.09;5025341;28;19921;-85
2023/04/07 12:07:08;;;;;;;;;;;;;;;13.01;nan;102034.00;5022842;28;20353;-84
2023/04/07 12:09:42;;;;;;;;;;;;;;;13.04;nan;102039.97;5021407;28;20024;-84
2023/04/07 12:12:09;;;;;;;;;;;;;;;13.09;nan;102042.78;5023048;28;19924;-84
2023/04/07 12:14:34;;;;;;;;;;;;;;;13.14;nan;102034.84;5019076;28;19975;-84
2023/04/07 12:17:02;;;;;;;;;;;;;;;13.16;nan;102033.56;5022876;28;20382;-84
2023/04/07 12:19:28;;;;;;;;;;;;;;;13.17;nan;102037.06;5003553;28;20176;-84
2023/04/07 12:21:54;;;;;;;;;;;;;;;13.20;nan;102039.31;5022959;28;20000;-84
2023/04/07 12:24:20;;;;;;;;;;;;;;;13.23;nan;102038.84;5022209;28;20024;-84
2023/04/07 12:26:46;;;;;;;;;;;;;;;13.27;nan;102031.94;5021956;28;19956;-84
2023/04/07 12:29:12;;;;;;;;;;;;;;;13.32;nan;102034.75;5024154;28;20264;-84
2023/04/07 12:31:37;;;;;;;;;;;;;;;13.34;nan;102037.22;5021303;28;20004;-84
2023/04/07 12:37:34;;;;;;;;;;;;;;;13.38;nan;102039.19;4981539;28;20034;-84
2023/04/07 12:40:31;;;;;;;;;;;;;;;13.39;nan;102040.81;5024014;28;19921;-84
2023/04/07 12:43:15;;;;;;;;;;;;;;;13.39;nan;102040.00;5019489;28;20000;-84
2023/04/07 12:45:41;;;;;;;;;;;;;;;13.39;nan;102030.06;4998381;28;20385;-84
2023/04/07 12:48:08;;;;;;;;;;;;;;;13.43;nan;102033.09;5019960;28;19928;-84
2023/04/07 12:50:34;;;;;;;;;;;;;;;13.43;nan;102031.22;5022259;28;19921;-84
2023/04/07 12:53:02;;;;;;;;;;;;;;;13.44;nan;102034.72;5017978;28;20297;-84
2023/04/07 12:55:28;;;;;;;;;;;;;;;13.45;nan;102037.19;5021850;28;19996;-84
2023/04/07 12:57:54;;;;;;;;;;;;;;;13.46;nan;102033.44;5023120;28;20015;-84
2023/04/07 13:00:19;;;;;;;;;;;;;;;13.46;nan;102030.75;5022823;28;20005;-84
2023/04/07 13:02:45;;;;;;;;;;;;;;;13.48;nan;102039.44;5022130;28;20023;-83
2023/04/07 13:05:10;;;;;;;;;;;;;;;13.50;nan;102031.13;5021480;28;20373;-84
2023/04/07 13:07:36;;;;;;;;;;;;;;;13.51;nan;102028.19;5021742;28;19917;-84
2023/04/07 13:10:02;;;;;;;;;;;;;;;13.52;nan;102027.13;5003521;28;19933;-83
2023/04/07 13:12:28;;;;;;;;;;;;;;;13.54;nan;102026.88;5023659;28;20177;-84
2023/04/07 13:14:53;;;;;;;;;;;;;;;13.57;nan;102029.09;5020280;28;20304;-84
2023/04/07 13:17:19;;;;;;;;;;;;;;;13.58;nan;102023.47;5018877;28;19928;-84
2023/04/07 13:19:47;;;;;;;;;;;;;;;13.60;nan;102026.75;5021917;28;19928;-84
2023/04/07 13:22:41;;;;;;;;;;;;;;;13.63;nan;102027.31;5022251;28;19921;-83
2023/04/07 13:25:07;;;;;;;;;;;;;;;13.66;nan;102022.31;5019912;28;20024;-84
2023/04/07 13:27:50;;;;;;;;;;;;;;;13.68;nan;102022.88;5022191;28;20003;-84
2023/04/07 13:30:18;;;;;;;;;;;;;;;13.72;nan;102026.72;5020902;28;19929;-84
2023/04/07 13:32:43;;;;;;;;;;;;;;;13.75;nan;102025.44;5022533;28;19917;-83